createdAt,value
2022-11-13T00:01:30.837Z,16.65
2022-11-13T00:06:35.161Z,16.70
2022-11-13T00:11:38.310Z,15.63
2022-11-13T00:16:41.278Z,13.40
2022-11-13T00:21:45.661Z,15.45
2022-11-13T00:26:49.000Z,15.52
2022-11-13T00:31:51.960Z,10.48
2022-11-13T00:36:56.331Z,10.68
2022-11-13T00:41:59.381Z,9.95
2022-11-13T00:47:02.401Z,8.40
2022-11-13T00:52:06.864Z,8.75
2022-11-13T00:57:09.865Z,9.45
2022-11-13T01:02:15.227Z,8.18
2022-11-13T01:07:19.593Z,7.60
2022-11-13T01:12:22.566Z,6.65
2022-11-13T01:17:25.640Z,7.45
2022-11-13T01:22:29.986Z,6.90
2022-11-13T01:27:33.265Z,5.30
2022-11-13T01:32:36.416Z,5.85
2022-11-13T01:37:40.756Z,4.78
2022-11-13T01:42:43.766Z,4.50
2022-11-13T01:47:47.171Z,3.05
2022-11-13T01:52:51.558Z,4.78
2022-11-13T01:57:54.639Z,3.47
2022-11-13T02:02:57.897Z,3.90
2022-11-13T02:08:02.370Z,4.43
2022-11-13T02:13:05.705Z,3.47
2022-11-13T02:18:09.161Z,3.42
2022-11-13T02:23:21.976Z,2.83
2022-11-13T02:28:26.756Z,2.17
2022-11-13T02:33:31.694Z,2.85
2022-11-13T02:38:37.141Z,2.58
2022-11-13T02:43:41.481Z,2.97
2022-11-13T02:48:44.626Z,1.92
2022-11-13T02:53:47.664Z,2.15
2022-11-13T02:58:52.139Z,2.03
2022-11-13T03:03:57.783Z,2.33
2022-11-13T03:09:01.190Z,1.98
2022-11-13T03:14:05.580Z,2.97
2022-11-13T03:19:08.560Z,1.77
2022-11-13T03:24:11.570Z,1.75
2022-11-13T03:29:16.056Z,1.40
2022-11-13T03:34:19.154Z,1.35
2022-11-13T03:39:22.533Z,2.65
2022-11-13T03:44:26.877Z,1.50
2022-11-13T03:49:29.869Z,2.00
2022-11-13T03:54:33.027Z,1.80
2022-11-13T03:59:37.424Z,1.40
2022-11-13T04:04:40.414Z,2.92
2022-11-13T04:09:43.465Z,1.50
2022-11-13T04:14:47.838Z,2.05
2022-11-13T04:19:50.865Z,1.30
2022-11-13T04:24:53.859Z,1.55
2022-11-13T04:29:58.230Z,1.80
2022-11-13T04:35:01.228Z,1.30
2022-11-13T04:40:04.540Z,1.33
2022-11-13T04:45:09.950Z,1.30
2022-11-13T04:50:13.687Z,1.30
2022-11-13T04:55:16.713Z,1.10
2022-11-13T05:00:21.459Z,1.40
2022-11-13T05:05:24.422Z,1.45
2022-11-13T05:10:27.439Z,1.38
2022-11-13T05:15:31.803Z,1.05
2022-11-13T05:20:34.866Z,1.13
2022-11-13T05:25:37.880Z,2.03
2022-11-13T05:30:42.243Z,1.20
2022-11-13T05:35:45.235Z,1.33
2022-11-13T05:40:48.204Z,1.10
2022-11-13T05:45:52.521Z,2.10
2022-11-13T05:50:55.561Z,1.40
2022-11-13T05:56:01.870Z,1.20
2022-11-13T06:01:12.644Z,1.08
2022-11-13T06:06:17.935Z,1.52
2022-11-13T06:11:24.654Z,1.40
2022-11-13T06:16:30.338Z,1.58
2022-11-13T06:21:35.014Z,1.10
2022-11-13T06:26:38.797Z,1.42
2022-11-13T06:31:43.150Z,0.90
2022-11-13T06:36:46.153Z,1.20
2022-11-13T06:41:49.091Z,1.73
2022-11-13T06:46:53.455Z,1.45
2022-11-13T06:51:56.425Z,3.10
2022-11-13T06:56:59.432Z,1.20
2022-11-13T07:02:03.857Z,1.45
2022-11-13T07:07:06.858Z,1.88
2022-11-13T07:12:09.889Z,1.80
2022-11-13T07:17:14.259Z,1.65
2022-11-13T07:22:17.212Z,1.40
2022-11-13T07:27:20.207Z,1.95
2022-11-13T07:32:24.624Z,1.40
2022-11-13T07:37:28.531Z,1.73
2022-11-13T07:42:31.542Z,1.70
2022-11-13T07:47:35.940Z,1.33
2022-11-13T07:52:38.954Z,1.25
2022-11-13T07:57:41.893Z,1.60
2022-11-13T08:02:47.827Z,1.50
2022-11-13T08:07:51.999Z,3.58
2022-11-13T08:13:01.005Z,10.02
2022-11-13T08:18:06.259Z,4.18
2022-11-13T08:23:10.330Z,141.27
2022-11-13T08:28:13.659Z,60.05
2022-11-13T08:33:18.034Z,38.95
2022-11-13T08:38:21.086Z,32.75
2022-11-13T08:43:24.141Z,27.38
2022-11-13T08:48:28.637Z,30.50
2022-11-13T08:53:32.068Z,25.35
2022-11-13T08:58:35.058Z,25.88
2022-11-13T09:03:39.438Z,18.00
2022-11-13T09:08:42.524Z,15.90
2022-11-13T09:13:48.470Z,13.95
2022-11-13T09:18:56.423Z,11.40
2022-11-13T09:23:59.521Z,10.23
2022-11-13T09:29:02.530Z,11.20
2022-11-13T09:34:06.932Z,11.02
2022-11-13T09:39:09.917Z,11.57
2022-11-13T09:44:18.593Z,10.85
2022-11-13T09:49:27.431Z,11.60
2022-11-13T09:54:30.419Z,10.25
2022-11-13T09:59:38.645Z,8.88
2022-11-13T10:04:55.702Z,9.35
2022-11-13T10:10:28.991Z,8.63
2022-11-13T10:15:32.734Z,10.60
2022-11-13T10:20:41.021Z,11.73
2022-11-13T10:25:45.389Z,8.68
2022-11-13T10:30:48.540Z,6.97
2022-11-13T10:36:00.042Z,9.20
2022-11-13T10:41:09.665Z,8.68
2022-11-13T10:46:21.525Z,7.38
2022-11-13T10:51:28.371Z,8.10
2022-11-13T10:56:33.741Z,8.18
2022-11-13T11:01:36.890Z,7.47
2022-11-13T11:07:18.458Z,10.65
2022-11-13T11:12:19.731Z,12.63
2022-11-13T11:17:25.444Z,9.13
2022-11-13T11:22:33.023Z,7.63
2022-11-13T11:27:39.202Z,7.95
2022-11-13T11:32:46.351Z,9.65
2022-11-13T11:37:58.498Z,8.43
2022-11-13T11:43:08.981Z,6.72
2022-11-13T11:48:15.123Z,6.82
2022-11-13T11:53:27.797Z,6.45
2022-11-13T11:59:05.034Z,12.50
2022-11-13T12:04:22.306Z,8.10
2022-11-13T12:09:30.736Z,7.40
2022-11-13T12:14:45.103Z,7.45
2022-11-13T12:19:55.295Z,8.27
2022-11-13T12:25:13.567Z,9.80
2022-11-13T12:30:20.459Z,10.02
2022-11-13T12:35:26.162Z,21.05
2022-11-13T12:40:41.210Z,38.72
2022-11-13T12:45:52.154Z,34.05
2022-11-13T12:51:00.627Z,39.17
2022-11-13T12:56:05.446Z,32.40
2022-11-13T13:01:18.506Z,36.22
2022-11-13T13:06:39.063Z,35.58
2022-11-13T13:11:50.893Z,35.00
2022-11-13T13:16:53.887Z,32.03
2022-11-13T13:21:57.178Z,31.27
2022-11-13T13:27:02.365Z,25.15
2022-11-13T13:32:19.411Z,23.73
2022-11-13T13:37:36.934Z,26.42
2022-11-13T13:42:59.492Z,21.83
2022-11-13T13:48:03.583Z,22.83
2022-11-13T13:53:07.877Z,25.60
2022-11-13T13:58:16.594Z,27.05
2022-11-13T14:03:21.786Z,20.80
2022-11-13T14:08:26.326Z,20.88
2022-11-13T14:13:31.144Z,14.35
2022-11-13T14:18:35.408Z,17.83
2022-11-13T14:23:43.446Z,17.17
2022-11-13T14:28:54.414Z,16.58
2022-11-13T14:34:00.869Z,19.20
2022-11-13T14:39:04.559Z,17.98
2022-11-13T14:44:12.680Z,14.75
2022-11-13T14:49:26.844Z,18.85
2022-11-13T14:54:53.321Z,12.27
2022-11-13T14:59:57.538Z,13.90
2022-11-13T15:05:00.540Z,12.32
2022-11-13T15:10:03.660Z,16.25
2022-11-13T15:15:14.570Z,11.63
2022-11-13T15:20:19.614Z,12.88
2022-11-13T15:25:24.658Z,10.57
2022-11-13T15:30:29.003Z,8.43
2022-11-13T15:35:32.726Z,14.27
2022-11-13T15:40:35.718Z,12.82
2022-11-13T15:45:44.262Z,13.20
2022-11-13T15:50:47.795Z,11.75
2022-11-13T15:55:50.844Z,12.77
2022-11-13T16:00:55.278Z,11.05
2022-11-13T16:05:58.997Z,9.30
2022-11-13T16:11:02.027Z,13.55
2022-11-13T16:16:06.987Z,12.55
2022-11-13T16:21:13.156Z,10.55
2022-11-13T16:26:18.568Z,13.02
2022-11-13T16:31:23.678Z,9.88
2022-11-13T16:36:27.664Z,12.65
2022-11-13T16:41:32.267Z,12.80
2022-11-13T16:46:41.624Z,9.43
2022-11-13T16:51:44.694Z,12.38
2022-11-13T16:56:47.738Z,13.07
2022-11-13T17:01:56.581Z,9.93
2022-11-13T17:06:59.638Z,12.70
2022-11-13T17:12:02.658Z,41.72
2022-11-13T17:17:11.689Z,24.60
2022-11-13T17:22:16.903Z,18.20
2022-11-13T17:27:19.957Z,19.08
2022-11-13T17:32:24.410Z,23.25
2022-11-13T17:37:27.441Z,18.52
2022-11-13T17:42:30.503Z,15.45
2022-11-13T17:47:36.195Z,17.25
2022-11-13T17:52:39.206Z,14.45
2022-11-13T17:57:42.236Z,11.10
2022-11-13T18:02:46.854Z,13.30
2022-11-13T18:07:49.842Z,15.48
2022-11-13T18:12:53.061Z,12.02
2022-11-13T18:17:57.686Z,11.25
2022-11-13T18:23:00.973Z,11.60
2022-11-13T18:28:04.132Z,11.70
2022-11-13T18:33:08.445Z,11.30
2022-11-13T18:38:11.419Z,15.88
2022-11-13T18:43:16.199Z,12.27
2022-11-13T18:48:20.513Z,12.45
2022-11-13T18:53:23.529Z,8.73
2022-11-13T18:58:26.570Z,10.95
2022-11-13T19:03:31.084Z,8.95
2022-11-13T19:08:38.282Z,10.68
2022-11-13T19:13:45.105Z,11.00
2022-11-13T19:18:54.358Z,9.95
2022-11-13T19:23:58.399Z,8.77
2022-11-13T19:29:01.452Z,9.68
2022-11-13T19:34:08.395Z,8.32
2022-11-13T19:39:11.406Z,7.95
2022-11-13T19:44:14.646Z,7.97
2022-11-13T19:49:19.118Z,10.25
2022-11-13T19:54:22.105Z,7.70
2022-11-13T19:59:25.091Z,7.65
2022-11-13T20:04:29.567Z,9.23
2022-11-13T20:09:32.539Z,7.60
2022-11-13T20:14:38.396Z,9.40
2022-11-13T20:19:43.507Z,8.15
2022-11-13T20:24:46.478Z,11.15
2022-11-13T20:29:49.671Z,9.60
2022-11-13T20:34:54.027Z,8.93
2022-11-13T20:39:57.169Z,9.40
2022-11-13T20:45:01.457Z,9.70
2022-11-13T20:50:06.581Z,9.68
2022-11-13T20:55:10.269Z,11.05
2022-11-13T21:00:13.864Z,11.45
2022-11-13T21:05:18.215Z,10.90
2022-11-13T21:10:21.197Z,11.80
2022-11-13T21:15:25.275Z,11.55
2022-11-13T21:20:29.594Z,12.63
2022-11-13T21:25:32.650Z,12.05
2022-11-13T21:30:35.716Z,21.33
2022-11-13T21:35:40.110Z,17.30
2022-11-13T21:40:43.058Z,16.98
2022-11-13T21:45:46.049Z,18.58
2022-11-13T21:50:50.457Z,17.45
2022-11-13T21:55:53.460Z,18.15
2022-11-13T22:00:56.402Z,17.05
2022-11-13T22:06:21.844Z,28.88
2022-11-13T22:11:26.163Z,86.03
2022-11-13T22:16:31.765Z,84.32
2022-11-13T22:21:37.265Z,54.65
2022-11-13T22:26:42.280Z,40.63
2022-11-13T22:31:45.370Z,35.45
2022-11-13T22:36:49.722Z,32.58
2022-11-13T22:41:52.766Z,38.45
2022-11-13T22:46:55.710Z,33.30
2022-11-13T22:52:00.034Z,31.42
2022-11-13T22:57:04.208Z,27.48
2022-11-13T23:02:07.205Z,27.90
2022-11-13T23:07:11.640Z,26.45
2022-11-13T23:12:14.673Z,25.48
2022-11-13T23:17:17.630Z,28.02
2022-11-13T23:22:21.962Z,22.35
2022-11-13T23:27:25.000Z,22.77
2022-11-13T23:32:27.954Z,20.73
2022-11-13T23:37:32.269Z,18.90
2022-11-13T23:42:54.385Z,18.52
2022-11-13T23:47:58.351Z,18.35
2022-11-13T23:53:02.769Z,19.23
2022-11-13T23:58:07.527Z,17.30
